createdAt,value
2023-05-15T00:04:19.625Z,6.97
2023-05-15T00:09:27.448Z,7.93
2023-05-15T00:14:32.618Z,8.38
2023-05-15T00:19:38.451Z,8.13
2023-05-15T00:24:46.348Z,5.82
2023-05-15T00:29:51.472Z,7.25
2023-05-15T00:34:56.647Z,5.85
2023-05-15T00:40:04.942Z,14.93
2023-05-15T00:45:13.174Z,5.50
2023-05-15T00:50:18.349Z,9.15
2023-05-15T00:55:27.564Z,10.00
2023-05-15T01:00:42.418Z,8.18
2023-05-15T01:05:48.099Z,8.15
2023-05-15T01:10:56.505Z,5.93
2023-05-15T01:16:01.976Z,8.90
2023-05-15T01:21:46.733Z,10.95
2023-05-15T01:27:19.638Z,6.57
2023-05-15T01:32:31.268Z,6.95
2023-05-15T01:37:39.165Z,5.72
2023-05-15T01:42:54.322Z,5.18
2023-05-15T01:48:03.195Z,8.45
2023-05-15T01:53:15.816Z,6.40
2023-05-15T01:58:21.639Z,7.00
2023-05-15T02:03:29.610Z,5.70
2023-05-15T02:08:35.224Z,8.85
2023-05-15T02:13:40.948Z,7.95
2023-05-15T02:18:54.119Z,4.93
2023-05-15T02:24:01.537Z,6.13
2023-05-15T02:29:23.707Z,6.78
2023-05-15T02:34:39.762Z,6.53
2023-05-15T02:39:46.398Z,7.15
2023-05-15T02:44:52.220Z,9.32
2023-05-15T02:50:00.687Z,7.53
2023-05-15T02:55:06.733Z,8.30
2023-05-15T03:00:13.752Z,9.32
2023-05-15T03:05:21.593Z,6.20
2023-05-15T03:10:26.766Z,6.97
2023-05-15T03:15:32.975Z,10.70
2023-05-15T03:20:40.754Z,8.95
2023-05-15T03:25:45.946Z,7.07
2023-05-15T03:30:51.019Z,9.07
2023-05-15T03:36:03.106Z,8.77
2023-05-15T03:41:11.421Z,9.38
2023-05-15T03:46:20.220Z,10.48
2023-05-15T03:51:28.596Z,9.73
2023-05-15T03:56:34.364Z,13.48
2023-05-15T04:01:50.367Z,13.27
2023-05-15T04:07:08.148Z,13.60
2023-05-15T04:12:13.343Z,9.48
2023-05-15T04:17:19.271Z,11.25
2023-05-15T04:22:27.003Z,11.60
2023-05-15T04:27:32.183Z,13.20
2023-05-15T04:32:38.123Z,16.27
2023-05-15T04:37:46.543Z,16.27
2023-05-15T04:42:51.639Z,16.02
2023-05-15T04:47:56.708Z,10.98
2023-05-15T04:53:04.580Z,15.63
2023-05-15T04:58:10.081Z,13.80
2023-05-15T05:03:16.305Z,18.40
2023-05-15T05:08:24.268Z,12.35
2023-05-15T05:13:29.539Z,10.57
2023-05-15T05:18:34.812Z,15.18
2023-05-15T05:23:42.942Z,10.32
2023-05-15T05:28:48.068Z,9.52
2023-05-15T05:33:53.234Z,9.77
2023-05-15T05:39:01.703Z,8.27
2023-05-15T05:44:07.312Z,9.23
2023-05-15T05:49:12.417Z,10.40
2023-05-15T05:54:20.795Z,8.93
2023-05-15T05:59:27.191Z,10.60
2023-05-15T06:04:32.274Z,13.20
2023-05-15T06:09:40.150Z,10.30
2023-05-15T06:14:46.823Z,14.52
2023-05-15T06:19:51.795Z,11.57
2023-05-15T06:24:59.579Z,12.02
2023-05-15T06:30:05.424Z,15.55
2023-05-15T06:35:12.563Z,10.27
2023-05-15T06:40:20.325Z,11.10
2023-05-15T06:45:25.839Z,15.50
2023-05-15T06:50:31.520Z,10.45
2023-05-15T06:55:40.435Z,11.88
2023-05-15T07:00:47.408Z,13.38
2023-05-15T07:05:53.352Z,14.85
2023-05-15T07:11:02.224Z,14.43
2023-05-15T07:16:08.730Z,13.07
2023-05-15T07:21:14.400Z,11.10
2023-05-15T07:26:32.851Z,13.73
2023-05-15T07:31:42.078Z,12.20
2023-05-15T07:36:47.595Z,16.35
2023-05-15T07:41:55.609Z,16.00
2023-05-15T07:47:02.795Z,18.20
2023-05-15T07:52:09.061Z,12.65
2023-05-15T07:57:17.553Z,13.38
2023-05-15T08:02:24.451Z,13.07
2023-05-15T08:07:30.961Z,12.38
2023-05-15T08:12:40.413Z,15.38
2023-05-15T08:18:07.785Z,13.18
2023-05-15T08:23:16.502Z,10.60
2023-05-15T08:28:26.825Z,14.75
2023-05-15T08:33:39.332Z,12.65
2023-05-15T08:38:49.904Z,14.70
2023-05-15T08:44:01.333Z,13.95
2023-05-15T08:49:17.031Z,11.25
2023-05-15T08:54:23.075Z,22.90
2023-05-15T08:59:34.833Z,16.73
2023-05-15T09:04:41.778Z,18.33
2023-05-15T09:09:51.722Z,12.45
2023-05-15T09:15:18.769Z,13.00
2023-05-15T09:20:33.239Z,13.95
2023-05-15T09:25:41.941Z,10.43
2023-05-15T09:30:54.375Z,15.93
2023-05-15T09:35:59.856Z,14.63
2023-05-15T09:41:09.011Z,13.48
2023-05-15T09:46:19.053Z,11.98
2023-05-15T09:51:29.049Z,12.00
2023-05-15T09:56:36.499Z,13.02
2023-05-15T10:01:46.653Z,10.52
2023-05-15T10:06:54.358Z,10.18
2023-05-15T10:12:04.337Z,11.90
2023-05-15T10:17:17.054Z,14.55
2023-05-15T10:22:25.547Z,10.82
2023-05-15T10:27:32.136Z,15.18
2023-05-15T10:32:42.897Z,10.80
2023-05-15T10:37:49.567Z,10.00
2023-05-15T10:42:56.170Z,13.55
2023-05-15T10:48:05.863Z,11.88
2023-05-15T10:53:14.057Z,13.43
2023-05-15T10:58:20.330Z,12.23
2023-05-15T11:03:50.011Z,9.75
2023-05-15T11:08:56.880Z,15.32
2023-05-15T11:14:18.577Z,14.27
2023-05-15T11:19:29.504Z,14.32
2023-05-15T11:24:40.073Z,14.27
2023-05-15T11:30:19.133Z,11.18
2023-05-15T11:35:32.283Z,13.77
2023-05-15T11:40:49.127Z,9.75
2023-05-15T11:45:56.921Z,11.57
2023-05-15T11:51:06.540Z,11.73
2023-05-15T11:56:17.383Z,10.60
2023-05-15T12:01:23.328Z,12.90
2023-05-15T12:06:33.939Z,10.00
2023-05-15T12:11:39.705Z,8.98
2023-05-15T12:16:46.528Z,9.55
2023-05-15T12:21:54.949Z,10.82
2023-05-15T12:27:04.552Z,11.52
2023-05-15T12:32:12.850Z,12.38
2023-05-15T12:37:23.327Z,9.93
2023-05-15T12:42:30.508Z,10.40
2023-05-15T12:47:37.199Z,9.02
2023-05-15T12:52:49.958Z,8.45
2023-05-15T12:57:56.162Z,13.25
2023-05-15T13:03:03.483Z,11.57
2023-05-15T13:08:12.543Z,11.73
2023-05-15T13:13:18.545Z,11.27
2023-05-15T13:18:24.408Z,7.28
2023-05-15T13:23:32.945Z,8.00
2023-05-15T13:28:38.794Z,10.23
2023-05-15T13:33:48.792Z,9.52
2023-05-15T13:38:59.159Z,10.43
2023-05-15T13:44:05.776Z,8.50
2023-05-15T13:49:12.294Z,7.85
2023-05-15T13:54:20.806Z,9.32
2023-05-15T13:59:26.930Z,9.63
2023-05-15T14:04:34.198Z,8.98
2023-05-15T14:09:42.744Z,8.20
2023-05-15T14:14:49.893Z,14.10
2023-05-15T14:19:56.895Z,9.63
2023-05-15T14:30:12.480Z,14.45
2023-05-15T14:35:18.366Z,15.25
2023-05-15T14:40:27.017Z,9.75
2023-05-15T14:45:34.430Z,9.35
2023-05-15T14:50:40.296Z,10.18
2023-05-15T14:55:48.883Z,10.65
2023-05-15T15:00:55.379Z,12.25
2023-05-15T15:06:02.236Z,13.52
2023-05-15T15:11:12.111Z,10.68
2023-05-15T15:16:18.115Z,8.63
2023-05-15T15:21:25.111Z,11.63
2023-05-15T15:26:33.845Z,10.95
2023-05-15T15:31:39.919Z,12.85
2023-05-15T15:36:47.404Z,12.68
2023-05-15T15:41:58.486Z,13.57
2023-05-15T15:47:06.232Z,13.43
2023-05-15T15:52:13.264Z,13.55
2023-05-15T16:02:28.468Z,15.05
2023-05-15T16:07:48.337Z,11.65
2023-05-15T16:13:04.788Z,18.85
2023-05-15T16:18:11.859Z,18.80
2023-05-15T16:23:18.326Z,16.27
2023-05-15T16:28:29.337Z,18.40
2023-05-15T16:33:45.638Z,15.02
2023-05-15T16:39:09.703Z,15.63
2023-05-15T16:44:24.528Z,15.93
2023-05-15T16:49:31.709Z,17.90
2023-05-15T16:54:38.511Z,15.13
2023-05-15T16:59:47.738Z,14.02
2023-05-15T17:04:54.543Z,14.27
2023-05-15T17:10:01.254Z,12.88
2023-05-15T17:15:11.653Z,12.52
2023-05-15T17:20:18.809Z,13.70
2023-05-15T17:25:26.820Z,17.35
2023-05-15T17:30:37.562Z,14.77
2023-05-15T17:35:43.653Z,16.13
2023-05-15T17:40:49.846Z,17.58
2023-05-15T17:45:58.847Z,16.33
2023-05-15T17:51:05.920Z,13.02
2023-05-15T17:56:13.528Z,15.77
2023-05-15T18:01:22.775Z,17.02
2023-05-15T18:06:29.594Z,16.55
2023-05-15T18:11:35.758Z,14.30
2023-05-15T18:16:44.919Z,16.50
2023-05-15T18:21:54.027Z,15.80
2023-05-15T18:27:00.699Z,14.18
2023-05-15T18:32:10.803Z,15.15
2023-05-15T18:37:20.916Z,13.43
2023-05-15T18:42:27.175Z,11.88
2023-05-15T18:47:37.187Z,15.05
2023-05-15T18:52:44.569Z,13.90
2023-05-15T19:02:59.162Z,13.82
2023-05-15T19:08:06.237Z,14.70
2023-05-15T19:13:13.127Z,14.38
2023-05-15T19:18:28.654Z,13.35
2023-05-15T19:23:36.196Z,10.82
2023-05-15T19:28:42.584Z,11.23
2023-05-15T19:33:51.412Z,12.65
2023-05-15T19:38:58.107Z,12.68
2023-05-15T19:44:04.940Z,9.95
2023-05-15T19:49:14.693Z,10.80
2023-05-15T19:54:22.571Z,13.43
2023-05-15T19:59:29.410Z,12.52
2023-05-15T20:04:39.290Z,18.88
2023-05-15T20:09:45.895Z,16.35
2023-05-15T20:14:54.414Z,12.30
2023-05-15T20:20:15.256Z,12.50
2023-05-15T20:25:25.519Z,17.25
2023-05-15T20:30:32.329Z,16.40
2023-05-15T20:35:41.403Z,15.05
2023-05-15T20:40:53.268Z,12.02
2023-05-15T20:46:05.391Z,13.98
2023-05-15T20:51:17.420Z,13.40
2023-05-15T20:56:24.298Z,16.70
2023-05-15T21:01:30.848Z,18.58
2023-05-15T21:06:39.834Z,17.20
2023-05-15T21:11:47.509Z,16.08
2023-05-15T21:16:53.563Z,17.27
2023-05-15T21:22:05.489Z,16.48
2023-05-15T21:27:11.443Z,17.13
2023-05-15T21:32:18.728Z,18.23
2023-05-15T21:37:27.315Z,15.77
2023-05-15T21:42:34.367Z,16.45
2023-05-15T21:47:40.356Z,18.48
2023-05-15T21:52:51.429Z,13.80
2023-05-15T21:57:57.325Z,17.60
2023-05-15T22:03:03.282Z,15.38
2023-05-15T22:08:12.386Z,18.52
2023-05-15T22:13:18.050Z,22.15
2023-05-15T22:18:24.197Z,16.55
2023-05-15T22:23:32.650Z,14.00
2023-05-15T22:28:37.746Z,19.98
2023-05-15T22:33:42.856Z,18.65
2023-05-15T22:38:54.163Z,15.20
2023-05-15T22:43:59.526Z,17.30
2023-05-15T22:49:04.773Z,14.35
2023-05-15T22:54:12.708Z,15.82
2023-05-15T22:59:17.919Z,18.65
2023-05-15T23:04:23.182Z,21.30
2023-05-15T23:09:31.196Z,17.40
2023-05-15T23:14:36.372Z,20.80
2023-05-15T23:19:41.678Z,16.45
2023-05-15T23:24:49.524Z,13.23
2023-05-15T23:29:54.668Z,17.45
2023-05-15T23:35:01.239Z,18.08
2023-05-15T23:40:10.356Z,17.92
2023-05-15T23:45:16.326Z,21.02
2023-05-15T23:50:21.804Z,21.02
2023-05-15T23:55:29.556Z,16.25
